Time;durP1;ratioP1;P1;durP2;ratioP2;P2;SDS_P1;SDS_P2;PMS_P1;PMS_P2;Temp;Humidity;BMP_temperature;BMP_pressure;BME280_temperature;BME280_humidity;BME280_pressure;Samples;Min_cycle;Max_cycle;Signal;HPM_P1;HPM_P2
2023/07/12 04:06:42;;;;;;;;;20.67;18.33;;;;;;;;6111372;46;10000626;-50
2023/07/12 04:12:45;;;;;;;;;19.00;17.67;;;;;;;;6489550;39;8873;-54
2023/07/12 04:18:48;;;;;;;;;21.33;18.67;;;;;;;;6491171;31;9581;-49
2023/07/12 04:26:03;;;;;;;;;21.67;21.67;;;;;;;;6495199;39;9038;-54
2023/07/12 04:32:06;;;;;;;;;23.33;21.67;;;;;;;;6491282;39;8922;-50
2023/07/12 04:38:08;;;;;;;;;20.67;20.00;;;;;;;;6492852;39;8879;-48
2023/07/12 04:44:11;;;;;;;;;21.00;18.33;;;;;;;;6491900;46;8967;-52
2023/07/12 04:50:13;;;;;;;;;20.25;19.50;;;;;;;;6491983;46;9014;-51
2023/07/12 04:56:15;;;;;;;;;23.67;23.67;;;;;;;;6491427;47;8848;-52
2023/07/12 05:02:18;;;;;;;;;18.50;17.50;;;;;;;;6491070;46;8939;-51
2023/07/12 05:08:21;;;;;;;;;21.00;18.00;;;;;;;;6492102;46;8920;-52
2023/07/12 05:14:26;;;;;;;;;26.00;24.50;;;;;;;;6492229;31;9515;-52
2023/07/12 05:20:28;;;;;;;;;22.75;22.75;;;;;;;;6491387;31;8916;-51
2023/07/12 05:26:30;;;;;;;;;26.00;24.75;;;;;;;;6491917;39;8927;-51
2023/07/12 05:32:33;;;;;;;;;23.50;22.00;;;;;;;;6534946;36;9582;-54
2023/07/12 05:38:37;;;;;;;;;22.25;22.25;;;;;;;;6490172;46;8891;-51
2023/07/12 05:44:40;;;;;;;;;21.25;21.25;;;;;;;;6489230;46;9021;-55
2023/07/12 05:50:42;;;;;;;;;28.50;27.50;;;;;;;;6489584;46;8883;-50
2023/07/12 05:56:46;;;;;;;;;17.25;15.75;;;;;;;;6491406;39;9570;-55
2023/07/12 06:02:48;;;;;;;;;25.75;24.25;;;;;;;;6489411;39;8912;-52
2023/07/12 06:08:51;;;;;;;;;28.75;27.25;;;;;;;;6491353;31;8876;-54
2023/07/12 06:14:55;;;;;;;;;26.50;24.75;;;;;;;;6489033;39;8867;-52
2023/07/12 06:21:01;;;;;;;;;26.00;26.00;;;;;;;;6489666;31;8944;-55
2023/07/12 06:27:06;;;;;;;;;23.25;23.25;;;;;;;;6489878;46;8906;-52
2023/07/12 06:33:10;;;;;;;;;30.50;29.25;;;;;;;;6489037;39;8885;-54
2023/07/12 06:39:12;;;;;;;;;28.75;27.50;;;;;;;;6488413;39;8921;-51
2023/07/12 06:45:14;;;;;;;;;27.50;27.50;;;;;;;;6487344;39;9443;-53
2023/07/12 06:51:16;;;;;;;;;29.25;28.25;;;;;;;;6487768;46;9057;-52
2023/07/12 06:57:19;;;;;;;;;26.00;24.25;;;;;;;;6489974;39;8944;-57
2023/07/12 07:03:23;;;;;;;;;34.00;31.00;;;;;;;;6487431;31;9341;-58
2023/07/12 07:09:25;;;;;;;;;31.75;30.50;;;;;;;;6489619;39;9007;-59
2023/07/12 07:15:28;;;;;;;;;25.50;24.50;;;;;;;;6488391;39;8966;-59
2023/07/12 07:21:31;;;;;;;;;27.75;27.50;;;;;;;;6487826;46;9111;-58
2023/07/12 07:27:34;;;;;;;;;38.50;35.25;;;;;;;;6487027;39;8943;-57
2023/07/12 07:33:39;;;;;;;;;31.00;30.75;;;;;;;;6486428;39;8964;-59
2023/07/12 07:39:42;;;;;;;;;28.50;26.50;;;;;;;;6485642;39;9174;-58
2023/07/12 07:45:44;;;;;;;;;29.25;28.75;;;;;;;;6486739;39;8936;-58
2023/07/12 07:51:47;;;;;;;;;26.75;26.25;;;;;;;;6487795;39;8931;-57
2023/07/12 07:57:49;;;;;;;;;28.25;28.25;;;;;;;;6489227;46;8908;-58
2023/07/12 08:03:52;;;;;;;;;22.75;22.75;;;;;;;;6488407;39;8959;-61
2023/07/12 08:09:55;;;;;;;;;22.75;20.00;;;;;;;;6489551;39;9059;-60
2023/07/12 08:15:58;;;;;;;;;25.00;25.00;;;;;;;;6487882;31;8891;-59
2023/07/12 08:22:03;;;;;;;;;26.00;24.25;;;;;;;;6487907;31;8916;-59
2023/07/12 08:28:05;;;;;;;;;28.25;27.25;;;;;;;;6486965;39;8962;-59
2023/07/12 08:34:07;;;;;;;;;26.75;24.50;;;;;;;;6487450;39;8928;-59
2023/07/12 08:40:13;;;;;;;;;23.75;23.00;;;;;;;;6488043;39;8952;-58
2023/07/12 08:46:22;;;;;;;;;32.25;30.50;;;;;;;;6486338;39;8944;-58
2023/07/12 08:52:32;;;;;;;;;24.25;24.25;;;;;;;;6485744;31;8972;-58
2023/07/12 08:58:45;;;;;;;;;24.00;23.00;;;;;;;;6488197;31;8932;-58
2023/07/12 09:04:49;;;;;;;;;23.25;23.25;;;;;;;;6126722;39;10000879;-59
2023/07/12 09:10:56;;;;;;;;;41.75;36.50;;;;;;;;6489025;39;8889;-58
2023/07/12 09:17:21;;;;;;;;;26.25;26.25;;;;;;;;6488557;39;8978;-58
2023/07/12 09:23:36;;;;;;;;;27.00;27.00;;;;;;;;6487740;39;8941;-60
2023/07/12 09:29:39;;;;;;;;;23.75;21.75;;;;;;;;6488936;39;9571;-58
2023/07/12 09:35:46;;;;;;;;;27.50;26.25;;;;;;;;6487632;31;8995;-56
2023/07/12 09:41:53;;;;;;;;;23.75;23.75;;;;;;;;6486137;46;8944;-59
2023/07/12 09:48:13;;;;;;;;;21.00;21.00;;;;;;;;6486214;39;8976;-58
2023/07/12 09:54:32;;;;;;;;;25.25;24.25;;;;;;;;6483780;46;8967;-61
2023/07/12 10:00:40;;;;;;;;;21.75;21.50;;;;;;;;6485776;31;9246;-58
2023/07/12 10:06:48;;;;;;;;;25.75;24.00;;;;;;;;6485405;39;9019;-60
2023/07/12 10:13:06;;;;;;;;;26.25;25.00;;;;;;;;6486345;39;9065;-59
2023/07/12 10:19:33;;;;;;;;;23.25;21.75;;;;;;;;6486675;46;9101;-60
2023/07/12 10:25:38;;;;;;;;;27.00;25.75;;;;;;;;6488009;31;9133;-59
2023/07/12 10:31:55;;;;;;;;;28.25;27.25;;;;;;;;6486988;46;8931;-58
2023/07/12 10:38:13;;;;;;;;;25.75;25.25;;;;;;;;6487746;46;9047;-59
2023/07/12 10:44:21;;;;;;;;;22.75;22.25;;;;;;;;6487246;39;8966;-59
2023/07/12 10:50:49;;;;;;;;;22.75;21.50;;;;;;;;6486519;31;9029;-59
2023/07/12 10:56:54;;;;;;;;;24.00;23.75;;;;;;;;6485727;31;8947;-58
2023/07/12 11:03:01;;;;;;;;;27.75;27.25;;;;;;;;6485710;39;9020;-57
2023/07/12 11:09:09;;;;;;;;;24.33;24.33;;;;;;;;6486097;46;8950;-57
2023/07/12 11:15:26;;;;;;;;;25.00;24.00;;;;;;;;6486800;31;10137;-58
2023/07/12 11:21:47;;;;;;;;;24.25;24.25;;;;;;;;6487404;39;9607;-59
2023/07/12 11:27:52;;;;;;;;;37.75;33.50;;;;;;;;6486126;39;9611;-59
2023/07/12 11:34:23;;;;;;;;;26.75;22.50;;;;;;;;6486815;39;9420;-58
2023/07/12 11:40:35;;;;;;;;;21.75;21.75;;;;;;;;6482920;39;9079;-57
2023/07/12 11:46:39;;;;;;;;;25.00;25.00;;;;;;;;6484337;39;8924;-60
2023/07/12 11:52:44;;;;;;;;;23.00;23.00;;;;;;;;6485895;39;9029;-59
2023/07/12 11:58:47;;;;;;;;;27.00;26.00;;;;;;;;6485303;39;9006;-59
2023/07/12 12:04:59;;;;;;;;;26.50;25.25;;;;;;;;6485562;31;8928;-58
2023/07/12 12:11:02;;;;;;;;;22.25;21.75;;;;;;;;5084857;31;10001672;-59
2023/07/12 12:17:08;;;;;;;;;26.50;24.75;;;;;;;;6488476;46;8889;-59
2023/07/12 12:23:10;;;;;;;;;26.50;26.50;;;;;;;;6489408;39;8955;-58
2023/07/12 12:29:22;;;;;;;;;24.00;24.00;;;;;;;;6488028;46;8932;-60
2023/07/12 12:35:25;;;;;;;;;27.00;26.25;;;;;;;;6486684;46;8939;-59
2023/07/12 12:41:37;;;;;;;;;24.25;23.00;;;;;;;;6487905;46;8946;-57
2023/07/12 12:47:40;;;;;;;;;25.00;24.25;;;;;;;;6487896;39;9617;-59
2023/07/12 12:53:43;;;;;;;;;25.00;24.50;;;;;;;;6487650;39;8972;-57
2023/07/12 12:59:53;;;;;;;;;24.25;24.25;;;;;;;;6488920;39;9089;-57
2023/07/12 13:05:58;;;;;;;;;38.75;34.25;;;;;;;;6488315;39;8928;-59
2023/07/12 13:12:01;;;;;;;;;27.50;24.50;;;;;;;;6487477;31;8994;-60
2023/07/12 13:18:11;;;;;;;;;26.25;26.25;;;;;;;;6487861;39;8894;-58
2023/07/12 13:24:33;;;;;;;;;26.50;26.25;;;;;;;;6488155;31;9621;-58
2023/07/12 13:30:38;;;;;;;;;25.00;25.00;;;;;;;;6488483;39;8924;-57
2023/07/12 13:36:46;;;;;;;;;27.50;27.50;;;;;;;;6483838;31;8929;-59
2023/07/12 13:42:53;;;;;;;;;33.50;29.75;;;;;;;;6484854;39;8945;-57
2023/07/12 13:48:59;;;;;;;;;24.25;23.25;;;;;;;;6487778;31;9050;-58
2023/07/12 13:55:04;;;;;;;;;23.50;22.75;;;;;;;;6488060;39;8913;-60
2023/07/12 14:01:10;;;;;;;;;27.50;25.00;;;;;;;;6488767;46;8983;-59
2023/07/12 14:07:32;;;;;;;;;25.25;24.00;;;;;;;;6488349;39;8936;-58
2023/07/12 14:13:37;;;;;;;;;21.25;20.00;;;;;;;;6488333;46;8835;-58
2023/07/12 14:19:42;;;;;;;;;25.00;23.25;;;;;;;;6488629;39;8937;-58
2023/07/12 14:25:45;;;;;;;;;28.50;25.25;;;;;;;;6486416;39;8909;-59
2023/07/12 14:31:47;;;;;;;;;25.50;24.00;;;;;;;;6488200;39;8830;-59
2023/07/12 14:37:50;;;;;;;;;24.25;23.00;;;;;;;;6488430;39;8853;-58
2023/07/12 14:43:56;;;;;;;;;27.75;25.50;;;;;;;;6488346;39;8937;-58
2023/07/12 14:49:59;;;;;;;;;25.25;25.00;;;;;;;;6488782;31;8902;-58
2023/07/12 14:56:03;;;;;;;;;23.00;22.75;;;;;;;;6486819;39;8881;-57
2023/07/12 15:02:26;;;;;;;;;25.75;23.25;;;;;;;;6487472;39;8959;-58
2023/07/12 15:08:34;;;;;;;;;27.25;26.25;;;;;;;;6487969;39;8948;-59
2023/07/12 15:14:36;;;;;;;;;22.00;22.00;;;;;;;;6487898;46;8952;-59
2023/07/12 15:20:42;;;;;;;;;27.33;26.67;;;;;;;;6487776;46;8938;-57
2023/07/12 15:26:44;;;;;;;;;26.25;25.00;;;;;;;;6488037;39;9043;-57
2023/07/12 15:32:49;;;;;;;;;27.00;26.00;;;;;;;;6488005;39;8929;-57
2023/07/12 15:38:51;;;;;;;;;24.25;23.75;;;;;;;;6486918;47;8884;-59
2023/07/12 15:44:54;;;;;;;;;24.25;23.50;;;;;;;;6489111;39;8874;-58
2023/07/12 15:51:11;;;;;;;;;27.25;25.75;;;;;;;;6488913;39;9086;-59
2023/07/12 15:57:16;;;;;;;;;27.50;26.25;;;;;;;;6489988;31;8874;-58
2023/07/12 16:03:21;;;;;;;;;27.75;26.75;;;;;;;;6488791;39;9583;-57
2023/07/12 16:09:24;;;;;;;;;27.50;27.50;;;;;;;;6487862;46;8939;-57
2023/07/12 16:15:26;;;;;;;;;24.75;24.75;;;;;;;;6489809;39;8980;-52
2023/07/12 16:21:30;;;;;;;;;27.75;27.25;;;;;;;;6487963;45;8983;-53
2023/07/12 16:27:35;;;;;;;;;28.00;27.33;;;;;;;;6488350;39;8885;-51
2023/07/12 16:33:38;;;;;;;;;29.75;29.50;;;;;;;;6487878;31;8988;-51
2023/07/12 16:39:49;;;;;;;;;31.00;29.00;;;;;;;;6488208;46;8861;-55
2023/07/12 16:45:53;;;;;;;;;27.25;23.25;;;;;;;;6488069;31;8892;-55
2023/07/12 16:52:05;;;;;;;;;25.25;23.00;;;;;;;;6486529;39;8964;-50
2023/07/12 16:58:23;;;;;;;;;30.25;29.00;;;;;;;;6486917;39;9546;-54
2023/07/12 17:04:28;;;;;;;;;35.75;32.50;;;;;;;;6488212;39;8893;-54
2023/07/12 17:10:31;;;;;;;;;26.00;25.75;;;;;;;;6488297;39;8938;-53
2023/07/12 17:16:33;;;;;;;;;32.50;29.50;;;;;;;;6488720;31;9110;-49
2023/07/12 17:22:37;;;;;;;;;26.75;26.75;;;;;;;;6487844;31;8975;-52
2023/07/12 17:28:41;;;;;;;;;32.50;30.50;;;;;;;;6488576;39;8854;-50
2023/07/12 17:34:44;;;;;;;;;35.00;31.75;;;;;;;;6487892;39;8880;-54
2023/07/12 17:40:49;;;;;;;;;32.00;31.00;;;;;;;;6487915;39;9020;-49
2023/07/12 17:46:55;;;;;;;;;34.00;32.25;;;;;;;;6487540;39;8895;-53
2023/07/12 17:52:57;;;;;;;;;34.25;32.00;;;;;;;;6487336;46;8869;-51
2023/07/12 17:59:00;;;;;;;;;42.75;35.50;;;;;;;;6488027;46;9038;-51
2023/07/12 18:05:08;;;;;;;;;46.00;36.25;;;;;;;;6487589;46;8912;-50
2023/07/12 18:11:35;;;;;;;;;34.00;30.75;;;;;;;;6488371;39;8926;-52
2023/07/12 18:17:39;;;;;;;;;40.75;34.00;;;;;;;;6487830;46;8874;-52
2023/07/12 18:23:41;;;;;;;;;35.75;32.25;;;;;;;;6487562;46;9059;-51
2023/07/12 18:29:45;;;;;;;;;39.50;34.50;;;;;;;;6487490;46;8889;-53
2023/07/12 18:35:50;;;;;;;;;42.00;35.00;;;;;;;;6486970;31;8891;-51
2023/07/12 18:41:53;;;;;;;;;40.25;35.00;;;;;;;;6488328;31;8921;-55
2023/07/12 18:47:56;;;;;;;;;37.75;33.75;;;;;;;;6486920;39;8902;-51
2023/07/12 18:53:59;;;;;;;;;41.75;36.75;;;;;;;;6487349;39;8888;-52
2023/07/12 19:00:04;;;;;;;;;42.75;36.25;;;;;;;;6486860;39;9850;-50
2023/07/12 19:06:16;;;;;;;;;40.75;34.75;;;;;;;;6488415;39;9571;-52
2023/07/12 19:12:20;;;;;;;;;45.25;37.00;;;;;;;;6487817;39;9653;-55
2023/07/12 19:18:22;;;;;;;;;40.25;36.00;;;;;;;;6487722;39;9505;-52
2023/07/12 19:24:25;;;;;;;;;38.25;34.00;;;;;;;;6487561;39;8998;-53
2023/07/12 19:30:29;;;;;;;;;41.00;35.00;;;;;;;;6489433;39;8960;-52
2023/07/12 19:36:32;;;;;;;;;42.00;35.00;;;;;;;;6488439;39;8896;-54
2023/07/12 19:42:37;;;;;;;;;43.75;38.75;;;;;;;;6309331;36;9999809;-55
2023/07/12 19:48:39;;;;;;;;;44.75;36.50;;;;;;;;6489430;31;8880;-52
2023/07/12 19:54:41;;;;;;;;;47.00;39.50;;;;;;;;6488331;39;8890;-52
2023/07/12 20:00:47;;;;;;;;;41.50;35.75;;;;;;;;6488746;31;8967;-54
2023/07/12 20:06:51;;;;;;;;;41.25;36.25;;;;;;;;6487832;46;8885;-51
2023/07/12 20:12:54;;;;;;;;;44.50;37.75;;;;;;;;6488151;39;8872;-52
2023/07/12 20:18:57;;;;;;;;;46.50;39.50;;;;;;;;6488617;46;8866;-53
2023/07/12 20:25:00;;;;;;;;;38.25;34.50;;;;;;;;6488971;39;9098;-52
2023/07/12 20:31:11;;;;;;;;;43.00;36.50;;;;;;;;6488609;31;8878;-54
2023/07/12 20:37:14;;;;;;;;;39.00;34.00;;;;;;;;6488422;39;9545;-53
2023/07/12 20:43:16;;;;;;;;;31.00;26.00;;;;;;;;6488078;39;8945;-53
2023/07/12 20:49:21;;;;;;;;;37.75;34.50;;;;;;;;6487888;39;8888;-51
2023/07/12 20:55:23;;;;;;;;;34.75;32.00;;;;;;;;6488613;46;8949;-51
2023/07/12 21:01:28;;;;;;;;;31.00;29.00;;;;;;;;6487857;39;8887;-53
2023/07/12 21:07:30;;;;;;;;;27.25;26.75;;;;;;;;6489106;39;9509;-51
2023/07/12 21:13:33;;;;;;;;;26.50;26.50;;;;;;;;6489375;39;8950;-53
2023/07/12 21:19:38;;;;;;;;;32.25;30.00;;;;;;;;6487054;31;8921;-53
2023/07/12 21:25:41;;;;;;;;;28.50;25.25;;;;;;;;6486357;46;8920;-50
2023/07/12 21:31:43;;;;;;;;;31.00;29.50;;;;;;;;6487703;46;8853;-53
2023/07/12 21:37:46;;;;;;;;;27.00;26.75;;;;;;;;6488721;39;9518;-51
2023/07/12 21:43:48;;;;;;;;;31.25;29.75;;;;;;;;6488746;39;8941;-54
2023/07/12 21:49:50;;;;;;;;;31.25;27.00;;;;;;;;6487883;39;9495;-49
2023/07/12 21:55:53;;;;;;;;;26.00;26.00;;;;;;;;6488213;39;9005;-53
2023/07/12 22:01:56;;;;;;;;;29.75;28.00;;;;;;;;6486662;39;8876;-52
2023/07/12 22:07:59;;;;;;;;;32.00;30.00;;;;;;;;6487717;46;8971;-52
2023/07/12 22:14:02;;;;;;;;;29.50;28.25;;;;;;;;6487170;39;8926;-48
2023/07/12 22:20:05;;;;;;;;;26.50;26.25;;;;;;;;6486890;46;8944;-49
2023/07/12 22:26:17;;;;;;;;;29.50;28.50;;;;;;;;6487189;39;8911;-50
2023/07/12 22:32:19;;;;;;;;;28.25;28.25;;;;;;;;6486796;31;9541;-54
2023/07/12 22:38:21;;;;;;;;;29.50;26.50;;;;;;;;6488056;39;8903;-52
2023/07/12 22:44:23;;;;;;;;;27.00;27.00;;;;;;;;6487776;46;8873;-55
2023/07/12 22:50:27;;;;;;;;;30.75;27.00;;;;;;;;6485906;47;8918;-52
2023/07/12 22:56:29;;;;;;;;;34.50;31.00;;;;;;;;6486891;31;8956;-52
2023/07/12 23:02:32;;;;;;;;;33.75;30.00;;;;;;;;6486713;39;8899;-53
2023/07/12 23:08:35;;;;;;;;;22.25;21.50;;;;;;;;6486695;39;8980;-54
2023/07/12 23:14:37;;;;;;;;;25.75;24.00;;;;;;;;6486852;39;8891;-52
2023/07/12 23:20:41;;;;;;;;;23.75;23.75;;;;;;;;6486082;39;8873;-50
2023/07/12 23:26:43;;;;;;;;;26.50;23.50;;;;;;;;6488088;39;8920;-52
2023/07/12 23:32:46;;;;;;;;;24.50;23.50;;;;;;;;6486078;47;8897;-52
2023/07/12 23:38:51;;;;;;;;;27.00;25.00;;;;;;;;6487162;31;8954;-51
2023/07/12 23:44:54;;;;;;;;;22.50;21.00;;;;;;;;6502962;36;127333;-53
2023/07/12 23:50:56;;;;;;;;;22.25;20.00;;;;;;;;6486794;39;8852;-49
2023/07/12 23:56:58;;;;;;;;;23.50;23.50;;;;;;;;6487038;31;9115;-53
